createdAt,value
2018-12-22T00:00:43.057Z,2.40
2018-12-22T00:03:10.275Z,2.50
2018-12-22T00:05:37.835Z,2.50
2018-12-22T00:08:04.994Z,2.50
2018-12-22T00:10:39.054Z,2.50
2018-12-22T00:13:06.237Z,2.50
2018-12-22T00:15:33.456Z,2.50
2018-12-22T00:18:00.716Z,2.50
2018-12-22T00:20:27.876Z,2.50
2018-12-22T00:22:55.555Z,2.50
2018-12-22T00:25:22.657Z,2.50
2018-12-22T00:27:52.597Z,2.50
2018-12-22T00:30:20.056Z,2.60
2018-12-22T00:32:47.258Z,2.60
2018-12-22T00:35:14.417Z,2.60
2018-12-22T00:37:41.642Z,2.60
2018-12-22T00:40:08.717Z,2.70
2018-12-22T00:42:35.838Z,2.70
2018-12-22T00:45:03.697Z,2.70
2018-12-22T00:47:30.898Z,2.70
2018-12-22T00:49:58.058Z,2.80
2018-12-22T00:52:25.339Z,2.80
2018-12-22T00:54:52.479Z,2.80
2018-12-22T00:57:19.779Z,2.90
2018-12-22T00:59:46.918Z,2.80
2018-12-22T01:02:14.216Z,2.80
2018-12-22T01:04:41.500Z,2.80
2018-12-22T01:07:08.701Z,2.80
2018-12-22T01:09:35.880Z,2.90
2018-12-22T01:12:03.120Z,2.90
2018-12-22T01:14:30.322Z,2.90
2018-12-22T01:16:57.480Z,2.90
2018-12-22T01:19:31.661Z,2.90
2018-12-22T01:21:58.881Z,3.00
2018-12-22T01:24:26.089Z,3.00
2018-12-22T01:26:53.300Z,3.00
2018-12-22T01:29:20.655Z,3.10
2018-12-22T01:31:47.820Z,3.20
2018-12-22T01:34:15.001Z,3.30
2018-12-22T01:36:42.221Z,3.30
2018-12-22T01:39:09.442Z,3.30
2018-12-22T01:41:43.661Z,3.30
2018-12-22T01:44:10.921Z,3.30
2018-12-22T01:46:38.062Z,3.20
2018-12-22T01:49:05.260Z,3.20
2018-12-22T01:51:32.381Z,3.10
2018-12-22T01:53:59.541Z,3.10
2018-12-22T01:56:26.781Z,3.00
2018-12-22T01:58:53.900Z,3.00
2018-12-22T02:01:21.140Z,3.00
2018-12-22T02:03:48.502Z,2.90
2018-12-22T02:06:15.641Z,2.90
2018-12-22T02:08:42.801Z,3.00
2018-12-22T02:11:09.900Z,3.10
2018-12-22T02:13:37.161Z,3.20
2018-12-22T02:16:04.281Z,3.20
2018-12-22T02:18:31.460Z,3.20
2018-12-22T02:20:58.659Z,3.20
2018-12-22T02:23:26.260Z,3.20
2018-12-22T02:25:53.401Z,3.20
2018-12-22T02:28:20.521Z,3.10
2018-12-22T02:30:54.623Z,3.20
2018-12-22T02:33:21.723Z,3.20
2018-12-22T02:35:48.959Z,3.20
2018-12-22T02:38:16.029Z,3.20
2018-12-22T02:40:43.104Z,3.20
2018-12-22T02:43:10.202Z,3.20
2018-12-22T02:45:37.322Z,3.30
2018-12-22T02:48:04.424Z,3.30
2018-12-22T02:50:31.564Z,3.40
2018-12-22T02:52:58.723Z,3.40
2018-12-22T02:55:25.902Z,3.40
2018-12-22T02:57:53.002Z,3.50
2018-12-22T03:00:20.399Z,3.60
2018-12-22T03:02:47.502Z,3.60
2018-12-22T03:05:14.708Z,3.70
2018-12-22T03:07:41.763Z,3.80
2018-12-22T03:10:08.883Z,3.90
2018-12-22T03:12:35.983Z,3.90
2018-12-22T03:15:04.812Z,4.00
2018-12-22T03:17:32.009Z,4.10
2018-12-22T03:19:59.225Z,4.20
2018-12-22T03:22:26.403Z,4.40
2018-12-22T03:24:53.564Z,4.50
2018-12-22T03:27:20.743Z,4.70
2018-12-22T03:29:48.167Z,4.80
2018-12-22T03:32:15.345Z,4.90
2018-12-22T03:34:42.483Z,5.00
2018-12-22T03:37:09.668Z,5.00
2018-12-22T03:39:36.844Z,5.10
2018-12-22T03:42:04.104Z,5.10
2018-12-22T03:44:31.243Z,5.20
2018-12-22T03:46:58.383Z,5.30
2018-12-22T03:49:25.583Z,5.30
2018-12-22T03:51:52.853Z,5.40
2018-12-22T03:54:20.403Z,5.60
2018-12-22T03:56:47.585Z,5.70
2018-12-22T03:59:14.666Z,5.80
2018-12-22T04:01:41.844Z,6.00
2018-12-22T04:04:08.983Z,6.20
2018-12-22T04:06:36.162Z,6.40
2018-12-22T04:09:05.523Z,6.70
2018-12-22T04:11:32.704Z,6.90
2018-12-22T04:13:59.802Z,7.20
2018-12-22T04:16:26.942Z,7.50
2018-12-22T04:18:54.103Z,7.50
2018-12-22T04:21:21.283Z,7.50
2018-12-22T04:23:48.462Z,7.60
2018-12-22T04:26:15.645Z,7.80
2018-12-22T04:28:42.785Z,8.10
2018-12-22T04:31:10.202Z,8.30
2018-12-22T04:33:37.461Z,8.30
2018-12-22T04:36:04.583Z,8.40
2018-12-22T04:38:31.723Z,8.50
2018-12-22T04:41:05.942Z,8.70
2018-12-22T04:43:33.060Z,8.80
2018-12-22T04:46:00.184Z,9.00
2018-12-22T04:48:27.501Z,9.00
2018-12-22T04:50:54.622Z,9.00
2018-12-22T04:53:21.825Z,9.10
2018-12-22T04:55:49.040Z,9.10
2018-12-22T04:58:16.162Z,9.10
2018-12-22T05:00:43.381Z,9.20
2018-12-22T05:03:10.816Z,9.40
2018-12-22T05:05:38.081Z,9.40
2018-12-22T05:08:05.281Z,9.40
2018-12-22T05:10:32.445Z,9.50
2018-12-22T05:12:59.661Z,9.50
2018-12-22T05:15:26.821Z,9.40
2018-12-22T05:17:53.947Z,9.30
2018-12-22T05:20:21.121Z,9.30
2018-12-22T05:22:48.322Z,9.20
2018-12-22T05:25:15.542Z,9.10
2018-12-22T05:27:42.762Z,9.10
2018-12-22T05:30:09.845Z,9.00
2018-12-22T05:32:44.060Z,9.00
2018-12-22T05:35:18.021Z,9.00
2018-12-22T05:37:45.240Z,9.00
2018-12-22T05:40:12.400Z,9.00
2018-12-22T05:42:39.600Z,9.00
2018-12-22T05:45:06.761Z,9.00
2018-12-22T05:47:33.920Z,9.10
2018-12-22T05:50:01.119Z,9.20
2018-12-22T05:52:28.260Z,9.20
2018-12-22T05:54:55.382Z,9.10
2018-12-22T05:57:22.601Z,9.10
2018-12-22T05:59:49.741Z,9.10
2018-12-22T06:02:16.921Z,9.10
2018-12-22T06:04:44.161Z,9.10
2018-12-22T06:07:11.602Z,9.00
2018-12-22T06:09:38.721Z,9.00
2018-12-22T06:12:05.982Z,9.00
2018-12-22T06:14:33.142Z,8.90
2018-12-22T06:17:00.425Z,8.90
2018-12-22T06:19:27.620Z,8.90
2018-12-22T06:21:54.963Z,8.90
2018-12-22T06:24:22.163Z,8.90
2018-12-22T06:26:49.343Z,8.80
2018-12-22T06:29:16.501Z,8.70
2018-12-22T06:31:43.702Z,8.70
2018-12-22T06:34:10.860Z,8.60
2018-12-22T06:36:38.020Z,8.60
2018-12-22T06:39:05.603Z,8.50
2018-12-22T06:41:32.741Z,8.50
2018-12-22T06:43:59.879Z,8.50
2018-12-22T06:46:27.002Z,8.40
2018-12-22T06:48:54.221Z,8.40
2018-12-22T06:51:21.420Z,8.50
2018-12-22T06:53:48.680Z,8.70
2018-12-22T06:56:15.860Z,8.80
2018-12-22T06:58:43.042Z,8.90
2018-12-22T07:01:10.141Z,9.10
2018-12-22T07:03:37.382Z,9.10
2018-12-22T07:06:04.500Z,9.20
2018-12-22T07:08:31.683Z,9.20
2018-12-22T07:10:58.840Z,9.10
2018-12-22T07:13:26.343Z,9.20
2018-12-22T07:15:53.519Z,9.20
2018-12-22T07:18:27.700Z,9.10
2018-12-22T07:20:54.859Z,9.10
2018-12-22T07:23:22.022Z,9.00
2018-12-22T07:25:49.181Z,9.00
2018-12-22T07:28:16.660Z,9.00
2018-12-22T07:30:43.779Z,9.00
2018-12-22T07:33:10.920Z,8.90
2018-12-22T07:35:38.080Z,8.90
2018-12-22T07:38:05.219Z,8.80
2018-12-22T07:40:32.440Z,8.80
2018-12-22T07:43:06.582Z,8.80
2018-12-22T07:45:33.842Z,8.70
2018-12-22T07:48:00.980Z,8.70
2018-12-22T07:50:28.160Z,8.70
2018-12-22T07:52:55.479Z,8.70
2018-12-22T07:55:22.660Z,8.80
2018-12-22T07:57:49.924Z,8.80
2018-12-22T08:00:17.060Z,8.80
2018-12-22T08:02:44.220Z,8.90
2018-12-22T08:05:11.340Z,8.90
2018-12-22T08:07:38.485Z,9.00
2018-12-22T08:10:06.661Z,9.00
2018-12-22T08:12:33.740Z,9.00
2018-12-22T08:15:00.940Z,9.00
2018-12-22T08:17:28.480Z,9.00
2018-12-22T08:19:55.768Z,9.00
2018-12-22T08:22:23.020Z,9.00
2018-12-22T08:24:50.060Z,9.00
2018-12-22T08:27:17.300Z,9.10
2018-12-22T08:29:44.482Z,9.00
2018-12-22T08:32:11.660Z,9.00
2018-12-22T08:34:38.800Z,9.00
2018-12-22T08:37:05.940Z,9.00
2018-12-22T08:39:33.261Z,9.00
2018-12-22T08:42:00.720Z,9.00
2018-12-22T08:44:27.900Z,9.00
2018-12-22T08:46:55.080Z,9.00
2018-12-22T08:49:22.220Z,9.00
2018-12-22T08:51:49.261Z,9.10
2018-12-22T08:54:16.604Z,9.00
2018-12-22T08:56:43.739Z,9.00
2018-12-22T08:59:10.880Z,9.00
2018-12-22T09:01:38.400Z,9.30
2018-12-22T09:04:05.501Z,9.60
2018-12-22T09:06:32.540Z,9.80
2018-12-22T09:08:59.680Z,9.90
2018-12-22T09:11:26.800Z,10.00
2018-12-22T09:13:53.940Z,10.10
2018-12-22T09:16:21.120Z,10.20
2018-12-22T09:18:48.139Z,10.30
2018-12-22T09:21:15.260Z,10.40
2018-12-22T09:23:42.380Z,10.40
2018-12-22T09:26:09.601Z,10.40
2018-12-22T09:28:36.720Z,10.50
2018-12-22T09:31:03.840Z,10.50
2018-12-22T09:33:30.940Z,10.50
2018-12-22T09:35:58.400Z,10.60
2018-12-22T09:38:25.501Z,10.60
2018-12-22T09:40:52.679Z,10.70
2018-12-22T09:43:19.840Z,10.60
2018-12-22T09:45:47.059Z,10.60
2018-12-22T09:48:14.282Z,10.60
2018-12-22T09:50:41.433Z,10.60
2018-12-22T09:53:10.012Z,10.70
2018-12-22T09:55:37.460Z,10.70
2018-12-22T09:58:11.640Z,10.80
2018-12-22T10:00:38.780Z,10.90
2018-12-22T10:03:06.401Z,10.90
2018-12-22T10:05:35.639Z,10.90
2018-12-22T10:08:02.720Z,10.80
2018-12-22T10:10:29.919Z,10.70
2018-12-22T10:12:57.079Z,10.60
2018-12-22T10:15:24.283Z,10.60
2018-12-22T10:17:51.407Z,10.60
2018-12-22T10:20:18.540Z,10.60
2018-12-22T10:22:45.679Z,10.50
2018-12-22T10:25:13.060Z,10.50
2018-12-22T10:27:40.199Z,10.50
2018-12-22T10:30:10.451Z,10.50
2018-12-22T10:32:37.694Z,10.50
2018-12-22T10:35:11.855Z,10.40
2018-12-22T10:37:38.993Z,10.40
2018-12-22T10:40:08.553Z,10.40
2018-12-22T10:42:36.174Z,10.50
2018-12-22T10:45:06.743Z,10.40
2018-12-22T10:47:33.897Z,10.40
2018-12-22T10:50:01.020Z,10.30
2018-12-22T10:52:28.219Z,10.20
2018-12-22T10:54:55.381Z,10.20
2018-12-22T10:57:23.360Z,10.10
2018-12-22T10:59:50.499Z,10.20
2018-12-22T11:02:17.660Z,10.20
2018-12-22T11:04:44.799Z,10.30
2018-12-22T11:07:11.931Z,10.40
2018-12-22T11:09:39.130Z,10.40
2018-12-22T11:12:06.270Z,10.40
2018-12-22T11:14:33.430Z,10.40
2018-12-22T11:17:00.890Z,10.60
2018-12-22T11:19:28.049Z,10.80
2018-12-22T11:21:55.209Z,11.00
2018-12-22T11:24:22.371Z,11.00
2018-12-22T11:26:49.488Z,11.10
2018-12-22T11:29:16.590Z,11.10
2018-12-22T11:31:50.950Z,11.00
2018-12-22T11:34:24.894Z,10.10
2018-12-22T11:36:51.974Z,9.80
2018-12-22T11:39:19.173Z,9.80
2018-12-22T11:41:46.255Z,9.80
2018-12-22T11:44:13.333Z,9.80
2018-12-22T11:46:40.634Z,9.80
2018-12-22T11:49:08.893Z,9.70
2018-12-22T11:51:35.995Z,9.80
2018-12-22T11:54:03.113Z,9.90
2018-12-22T11:56:30.256Z,9.80
2018-12-22T11:58:57.441Z,9.70
2018-12-22T12:01:24.694Z,9.60
2018-12-22T12:03:51.894Z,9.50
2018-12-22T12:06:18.995Z,9.40
2018-12-22T12:08:46.194Z,9.40
2018-12-22T12:11:13.333Z,9.40
2018-12-22T12:13:40.454Z,9.50
2018-12-22T12:16:12.573Z,9.50
2018-12-22T12:18:50.733Z,9.60
2018-12-22T12:21:17.914Z,9.60
2018-12-22T12:23:45.066Z,9.70
2018-12-22T12:26:12.206Z,9.70
2018-12-22T12:28:39.405Z,9.70
2018-12-22T12:31:06.587Z,9.70
2018-12-22T12:33:33.926Z,9.70
2018-12-22T12:36:01.126Z,9.80
2018-12-22T12:38:35.087Z,9.80
2018-12-22T12:41:09.245Z,9.90
2018-12-22T12:43:36.366Z,9.90
2018-12-22T12:46:03.546Z,10.00
2018-12-22T12:48:30.745Z,10.00
2018-12-22T12:50:57.969Z,10.00
2018-12-22T12:53:25.166Z,10.00
2018-12-22T12:55:52.687Z,10.00
2018-12-22T12:58:19.839Z,10.00
2018-12-22T13:00:47.035Z,10.00
2018-12-22T13:03:14.196Z,9.90
2018-12-22T13:05:41.397Z,9.90
2018-12-22T13:08:08.896Z,9.90
2018-12-22T13:10:36.508Z,9.80
2018-12-22T13:13:20.387Z,9.80
2018-12-22T13:15:47.588Z,9.80
2018-12-22T13:18:14.706Z,9.80
2018-12-22T13:20:41.907Z,9.80
2018-12-22T13:23:09.049Z,9.80
2018-12-22T13:25:36.187Z,9.80
2018-12-22T13:28:03.287Z,9.80
2018-12-22T13:30:30.386Z,9.80
2018-12-22T13:32:57.920Z,9.70
2018-12-22T13:35:25.167Z,9.70
2018-12-22T13:37:52.267Z,9.70
2018-12-22T13:40:19.487Z,9.70
2018-12-22T13:42:46.647Z,9.70
2018-12-22T13:45:13.843Z,9.70
2018-12-22T13:47:41.037Z,9.60
2018-12-22T13:50:12.294Z,9.60
2018-12-22T13:52:39.684Z,9.60
2018-12-22T13:55:09.564Z,9.60
2018-12-22T13:57:42.234Z,9.50
2018-12-22T14:00:23.211Z,9.50
2018-12-22T14:02:50.338Z,9.50
2018-12-22T14:05:26.556Z,9.50
2018-12-22T14:07:53.693Z,9.50
2018-12-22T14:10:22.814Z,9.40
2018-12-22T14:12:49.976Z,9.40
2018-12-22T14:18:30.238Z,9.30
2018-12-22T14:20:57.919Z,9.30
2018-12-22T14:23:47.936Z,9.30
2018-12-22T14:26:15.159Z,9.30
2018-12-22T14:28:42.247Z,9.20
2018-12-22T14:31:09.218Z,9.20
2018-12-22T14:33:36.381Z,9.20
2018-12-22T14:36:06.149Z,9.10
2018-12-22T14:38:33.359Z,9.20
2018-12-22T14:41:00.538Z,9.20
2018-12-22T14:43:27.655Z,9.20
2018-12-22T14:45:55.307Z,9.30
2018-12-22T14:48:22.479Z,9.30
2018-12-22T14:50:49.618Z,9.30
2018-12-22T14:53:16.795Z,9.30
2018-12-22T14:55:43.953Z,9.30
2018-12-22T14:58:11.224Z,9.30
2018-12-22T15:00:38.224Z,9.20
2018-12-22T15:03:05.171Z,9.10
2018-12-22T15:05:32.300Z,9.20
2018-12-22T15:07:59.509Z,9.10
2018-12-22T15:10:27.269Z,9.10
2018-12-22T15:12:54.402Z,9.20
2018-12-22T15:15:21.623Z,9.20
2018-12-22T15:17:49.165Z,9.30
2018-12-22T15:20:25.963Z,9.30
2018-12-22T15:22:53.323Z,9.30
2018-12-22T15:25:20.522Z,9.30
2018-12-22T15:27:47.686Z,9.30
2018-12-22T15:30:14.874Z,9.30
2018-12-22T15:32:46.266Z,9.30
2018-12-22T15:35:11.920Z,9.30
2018-12-22T15:37:39.136Z,9.40
2018-12-22T15:40:09.776Z,9.40
2018-12-22T15:42:37.155Z,9.40
2018-12-22T15:45:17.213Z,9.50
2018-12-22T15:47:45.686Z,9.50
2018-12-22T15:50:18.782Z,9.50
2018-12-22T15:52:45.862Z,9.60
2018-12-22T15:55:13.275Z,9.70
2018-12-22T15:57:40.451Z,9.70
2018-12-22T16:00:12.600Z,9.60
2018-12-22T16:02:39.955Z,9.60
2018-12-22T16:05:15.934Z,9.60
2018-12-22T16:07:43.121Z,9.60
2018-12-22T16:10:14.771Z,9.60
2018-12-22T16:12:41.980Z,9.50
2018-12-22T16:15:21.473Z,9.40
2018-12-22T16:17:48.593Z,9.30
2018-12-22T16:20:16.012Z,9.20
2018-12-22T16:22:49.963Z,9.20
2018-12-22T16:25:17.043Z,9.20
2018-12-22T16:27:55.413Z,9.20
2018-12-22T16:30:37.251Z,9.10
2018-12-22T16:33:04.268Z,9.10
2018-12-22T16:35:31.371Z,9.10
2018-12-22T16:37:58.512Z,9.10
2018-12-22T16:40:25.612Z,9.00
2018-12-22T16:42:52.793Z,9.00
2018-12-22T16:45:19.944Z,8.90
2018-12-22T16:47:47.146Z,8.80
2018-12-22T16:50:15.771Z,8.70
2018-12-22T16:52:42.962Z,8.80
2018-12-22T16:55:14.400Z,8.80
2018-12-22T16:58:04.799Z,8.80
2018-12-22T17:00:43.640Z,8.70
2018-12-22T17:03:17.833Z,8.70
2018-12-22T17:05:44.911Z,8.60
2018-12-22T17:08:12.053Z,8.50
2018-12-22T17:10:39.252Z,8.50
2018-12-22T17:13:06.413Z,8.40
2018-12-22T17:15:33.772Z,8.40
2018-12-22T17:18:01.753Z,8.30
2018-12-22T17:20:29.331Z,8.20
2018-12-22T17:25:59.995Z,8.20
2018-12-22T17:28:28.509Z,8.30
2018-12-22T17:30:55.893Z,8.30
2018-12-22T17:33:23.133Z,8.40
2018-12-22T17:35:50.413Z,8.40
2018-12-22T17:38:17.612Z,8.50
2018-12-22T17:40:44.705Z,8.50
2018-12-22T17:43:11.834Z,8.60
2018-12-22T17:45:38.993Z,8.60
2018-12-22T17:48:06.166Z,8.50
2018-12-22T17:50:40.135Z,8.40
2018-12-22T17:53:07.535Z,8.30
2018-12-22T17:55:34.695Z,8.30
2018-12-22T17:58:01.853Z,8.20
2018-12-22T18:00:29.095Z,8.30
2018-12-22T18:02:56.232Z,8.40
2018-12-22T18:05:23.494Z,8.40
2018-12-22T18:07:50.633Z,8.40
2018-12-22T18:10:17.853Z,8.40
2018-12-22T18:12:45.033Z,8.40
2018-12-22T18:15:27.932Z,8.40
2018-12-22T18:17:55.553Z,8.40
2018-12-22T18:20:22.732Z,8.40
2018-12-22T18:22:49.853Z,8.40
2018-12-22T18:25:19.438Z,8.40
2018-12-22T18:27:49.593Z,8.50
2018-12-22T18:30:16.896Z,8.50
2018-12-22T18:32:45.298Z,8.60
2018-12-22T18:35:12.458Z,8.60
2018-12-22T18:37:39.561Z,8.60
2018-12-22T18:40:14.850Z,8.60
2018-12-22T18:42:44.064Z,8.60
2018-12-22T18:45:11.820Z,8.60
2018-12-22T18:47:39.524Z,8.60
2018-12-22T18:50:18.102Z,8.50
2018-12-22T18:52:45.338Z,8.50
2018-12-22T18:55:12.590Z,8.50
2018-12-22T18:57:39.770Z,8.50
2018-12-22T19:00:14.239Z,8.50
2018-12-22T19:02:41.459Z,8.50
2018-12-22T19:05:09.059Z,8.50
2018-12-22T19:07:36.238Z,8.40
2018-12-22T19:10:12.697Z,8.40
2018-12-22T19:12:39.961Z,8.40
2018-12-22T19:15:07.281Z,8.40
2018-12-22T19:17:34.380Z,8.40
2018-12-22T19:20:01.544Z,8.40
2018-12-22T19:22:28.884Z,8.30
2018-12-22T19:24:55.984Z,8.30
2018-12-22T19:27:23.122Z,8.40
2018-12-22T19:29:50.261Z,8.30
2018-12-22T19:32:18.242Z,8.40
2018-12-22T19:34:45.340Z,8.40
2018-12-22T19:37:12.462Z,8.40
2018-12-22T19:39:39.621Z,8.40
2018-12-22T19:42:06.702Z,8.40
2018-12-22T19:44:33.823Z,8.40
2018-12-22T19:47:01.175Z,8.30
2018-12-22T19:49:28.320Z,8.30
2018-12-22T19:51:55.440Z,8.30
2018-12-22T19:54:22.661Z,8.30
2018-12-22T19:56:49.780Z,8.30
2018-12-22T19:59:17.000Z,8.20
2018-12-22T20:01:44.140Z,8.20
2018-12-22T20:04:11.359Z,8.20
2018-12-22T20:06:38.460Z,8.20
2018-12-22T20:09:05.641Z,8.20
2018-12-22T20:11:32.820Z,8.20
2018-12-22T20:13:59.901Z,8.10
2018-12-22T20:16:27.098Z,8.10
2018-12-22T20:18:54.294Z,7.90
2018-12-22T20:21:21.386Z,8.00
2018-12-22T20:23:48.527Z,7.90
2018-12-22T20:26:15.627Z,7.90
2018-12-22T20:28:42.757Z,7.90
2018-12-22T20:31:09.907Z,7.90
2018-12-22T20:33:37.209Z,7.80
2018-12-22T20:36:04.407Z,7.80
2018-12-22T20:38:31.647Z,7.80
2018-12-22T20:40:58.727Z,7.80
2018-12-22T20:43:26.386Z,7.80
2018-12-22T20:45:53.688Z,7.70
2018-12-22T20:48:20.697Z,7.70
2018-12-22T20:50:47.797Z,7.70
2018-12-22T20:53:14.946Z,7.70
2018-12-22T20:55:42.047Z,7.70
2018-12-22T20:58:09.292Z,7.70
2018-12-22T21:00:36.453Z,7.70
2018-12-22T21:03:04.654Z,7.70
2018-12-22T21:05:35.813Z,7.70
2018-12-22T21:08:03.113Z,7.70
2018-12-22T21:10:30.233Z,7.60
2018-12-22T21:12:57.473Z,7.60
2018-12-22T21:15:25.273Z,7.60
2018-12-22T21:17:52.833Z,7.60
2018-12-22T21:20:19.974Z,7.60
2018-12-22T21:22:47.794Z,7.60
2018-12-22T21:25:15.014Z,7.60
2018-12-22T21:27:42.313Z,7.60
2018-12-22T21:30:09.598Z,7.60
2018-12-22T21:32:36.869Z,7.70
2018-12-22T21:35:04.128Z,7.60
2018-12-22T21:37:31.228Z,7.70
2018-12-22T21:39:58.388Z,7.70
2018-12-22T21:42:25.510Z,7.80
2018-12-22T21:44:52.728Z,7.80
2018-12-22T21:47:19.809Z,7.70
2018-12-22T21:49:46.887Z,7.70
2018-12-22T21:52:14.010Z,7.70
2018-12-22T21:54:41.174Z,7.70
2018-12-22T21:57:08.355Z,7.60
2018-12-22T21:59:35.516Z,7.70
2018-12-22T22:02:02.635Z,7.70
2018-12-22T22:04:37.014Z,7.70
2018-12-22T22:06:58.915Z,7.70
2018-12-22T22:09:25.995Z,7.70
2018-12-22T22:11:53.134Z,7.70
2018-12-22T22:14:20.295Z,7.60
2018-12-22T22:16:47.418Z,7.60
2018-12-22T22:19:14.717Z,7.60
2018-12-22T22:21:41.835Z,7.50
2018-12-22T22:24:08.935Z,7.60
2018-12-22T22:26:36.073Z,7.60
2018-12-22T22:29:03.404Z,7.60
2018-12-22T22:31:30.572Z,7.70
2018-12-22T22:33:57.818Z,7.70
2018-12-22T22:36:24.921Z,7.70
2018-12-22T22:38:52.119Z,7.70
2018-12-22T22:41:19.199Z,7.70
2018-12-22T22:43:46.763Z,7.80
2018-12-22T22:46:20.859Z,7.70
2018-12-22T22:48:47.979Z,7.70
2018-12-22T22:51:15.119Z,7.70
2018-12-22T22:53:42.299Z,7.70
2018-12-22T22:56:09.400Z,7.70
2018-12-22T22:58:36.601Z,7.60
2018-12-22T23:01:04.244Z,7.70
2018-12-22T23:03:31.359Z,7.60
2018-12-22T23:05:59.179Z,7.60
2018-12-22T23:08:26.235Z,7.70
2018-12-22T23:10:53.380Z,7.70
2018-12-22T23:13:20.538Z,7.70
2018-12-22T23:15:47.638Z,7.70
2018-12-22T23:18:14.718Z,7.80
2018-12-22T23:20:41.839Z,7.90
2018-12-22T23:23:08.978Z,7.90
2018-12-22T23:28:32.358Z,7.90
2018-12-22T23:30:59.432Z,7.90
2018-12-22T23:33:26.579Z,7.90
2018-12-22T23:35:53.738Z,7.80
2018-12-22T23:38:20.799Z,7.80
2018-12-22T23:40:47.918Z,7.80
2018-12-22T23:43:15.138Z,7.80
2018-12-22T23:45:42.285Z,7.80
2018-12-22T23:48:09.426Z,7.70
2018-12-22T23:50:36.545Z,7.70
2018-12-22T23:53:03.663Z,7.60
2018-12-22T23:55:30.845Z,7.60
2018-12-22T23:57:57.965Z,7.50
